sensor_id;sensor_type;location;lat;lon;timestamp;P1;durP1;ratioP1;P2;durP2;ratioP2
59054;SDS011;44845;51.444;7.460;2024-02-15T00:00:36;4.22;;;3.72;;
59054;SDS011;44845;51.444;7.460;2024-02-15T00:03:02;4.55;;;3.45;;
59054;SDS011;44845;51.444;7.460;2024-02-15T00:05:28;6.32;;;4.13;;
59054;SDS011;44845;51.444;7.460;2024-02-15T00:07:53;6.05;;;4.10;;
59054;SDS011;44845;51.444;7.460;2024-02-15T00:10:19;5.45;;;4.50;;
59054;SDS011;44845;51.444;7.460;2024-02-15T00:12:46;6.45;;;4.10;;
59054;SDS011;44845;51.444;7.460;2024-02-15T00:15:12;8.77;;;3.92;;
59054;SDS011;44845;51.444;7.460;2024-02-15T00:17:38;4.65;;;3.53;;
59054;SDS011;44845;51.444;7.460;2024-02-15T00:20:03;3.92;;;3.58;;
59054;SDS011;44845;51.444;7.460;2024-02-15T00:22:34;6.60;;;3.55;;
59054;SDS011;44845;51.444;7.460;2024-02-15T00:25:06;6.65;;;3.50;;
59054;SDS011;44845;51.444;7.460;2024-02-15T00:27:34;4.78;;;3.50;;
59054;SDS011;44845;51.444;7.460;2024-02-15T00:30:00;4.45;;;3.10;;
59054;SDS011;44845;51.444;7.460;2024-02-15T00:32:25;3.53;;;3.22;;
59054;SDS011;44845;51.444;7.460;2024-02-15T00:34:51;5.30;;;3.40;;
59054;SDS011;44845;51.444;7.460;2024-02-15T00:37:16;3.53;;;2.90;;
59054;SDS011;44845;51.444;7.460;2024-02-15T00:39:42;4.95;;;2.92;;
59054;SDS011;44845;51.444;7.460;2024-02-15T00:42:08;3.10;;;2.80;;
59054;SDS011;44845;51.444;7.460;2024-02-15T00:44:34;3.72;;;2.53;;
59054;SDS011;44845;51.444;7.460;2024-02-15T00:46:59;5.28;;;2.58;;
59054;SDS011;44845;51.444;7.460;2024-02-15T00:49:24;3.22;;;2.60;;
59054;SDS011;44845;51.444;7.460;2024-02-15T00:51:52;4.38;;;2.40;;
59054;SDS011;44845;51.444;7.460;2024-02-15T00:54:18;2.85;;;2.38;;
59054;SDS011;44845;51.444;7.460;2024-02-15T00:56:43;2.53;;;2.15;;
59054;SDS011;44845;51.444;7.460;2024-02-15T00:59:09;2.30;;;2.10;;
59054;SDS011;44845;51.444;7.460;2024-02-15T01:01:34;4.53;;;2.10;;
59054;SDS011;44845;51.444;7.460;2024-02-15T01:04:03;6.50;;;2.30;;
59054;SDS011;44845;51.444;7.460;2024-02-15T01:06:29;2.58;;;2.25;;
59054;SDS011;44845;51.444;7.460;2024-02-15T01:08:54;3.25;;;2.17;;
59054;SDS011;44845;51.444;7.460;2024-02-15T01:11:19;2.63;;;2.40;;
59054;SDS011;44845;51.444;7.460;2024-02-15T01:13:45;4.63;;;2.35;;
59054;SDS011;44845;51.444;7.460;2024-02-15T01:16:11;2.70;;;2.50;;
59054;SDS011;44845;51.444;7.460;2024-02-15T01:18:36;2.72;;;2.50;;
59054;SDS011;44845;51.444;7.460;2024-02-15T01:21:02;3.35;;;2.80;;
59054;SDS011;44845;51.444;7.460;2024-02-15T01:23:29;5.65;;;2.28;;
59054;SDS011;44845;51.444;7.460;2024-02-15T01:25:54;3.58;;;2.90;;
59054;SDS011;44845;51.444;7.460;2024-02-15T01:28:19;5.63;;;2.60;;
59054;SDS011;44845;51.444;7.460;2024-02-15T01:30:45;7.80;;;2.92;;
59054;SDS011;44845;51.444;7.460;2024-02-15T01:33:11;4.03;;;2.95;;
59054;SDS011;44845;51.444;7.460;2024-02-15T01:35:37;2.97;;;2.67;;
59054;SDS011;44845;51.444;7.460;2024-02-15T01:38:03;3.92;;;3.00;;
59054;SDS011;44845;51.444;7.460;2024-02-15T01:40:29;3.38;;;2.72;;
59054;SDS011;44845;51.444;7.460;2024-02-15T01:42:54;5.25;;;3.25;;
59054;SDS011;44845;51.444;7.460;2024-02-15T01:45:20;7.63;;;3.55;;
59054;SDS011;44845;51.444;7.460;2024-02-15T01:47:47;5.60;;;3.30;;
59054;SDS011;44845;51.444;7.460;2024-02-15T01:50:13;8.13;;;3.78;;
59054;SDS011;44845;51.444;7.460;2024-02-15T01:52:39;6.07;;;3.53;;
59054;SDS011;44845;51.444;7.460;2024-02-15T01:55:06;5.75;;;3.25;;
59054;SDS011;44845;51.444;7.460;2024-02-15T01:57:36;4.72;;;3.25;;
59054;SDS011;44845;51.444;7.460;2024-02-15T02:00:05;6.65;;;3.47;;
59054;SDS011;44845;51.444;7.460;2024-02-15T02:02:33;4.68;;;3.35;;
59054;SDS011;44845;51.444;7.460;2024-02-15T02:05:00;6.22;;;4.20;;
59054;SDS011;44845;51.444;7.460;2024-02-15T02:07:25;6.60;;;3.72;;
59054;SDS011;44845;51.444;7.460;2024-02-15T02:09:51;6.28;;;3.40;;
59054;SDS011;44845;51.444;7.460;2024-02-15T02:12:16;6.60;;;3.42;;
59054;SDS011;44845;51.444;7.460;2024-02-15T02:14:43;11.93;;;3.83;;
59054;SDS011;44845;51.444;7.460;2024-02-15T02:17:12;6.07;;;3.53;;
59054;SDS011;44845;51.444;7.460;2024-02-15T02:19:41;7.65;;;3.72;;
59054;SDS011;44845;51.444;7.460;2024-02-15T02:22:08;8.88;;;3.55;;
59054;SDS011;44845;51.444;7.460;2024-02-15T02:24:35;8.45;;;4.22;;
59054;SDS011;44845;51.444;7.460;2024-02-15T02:27:05;10.68;;;4.70;;
59054;SDS011;44845;51.444;7.460;2024-02-15T02:29:32;6.20;;;3.88;;
59054;SDS011;44845;51.444;7.460;2024-02-15T02:31:58;9.35;;;4.60;;
59054;SDS011;44845;51.444;7.460;2024-02-15T02:34:23;7.75;;;4.60;;
59054;SDS011;44845;51.444;7.460;2024-02-15T02:36:50;7.57;;;4.50;;
59054;SDS011;44845;51.444;7.460;2024-02-15T02:39:16;7.45;;;4.32;;
59054;SDS011;44845;51.444;7.460;2024-02-15T02:41:41;12.48;;;4.72;;
59054;SDS011;44845;51.444;7.460;2024-02-15T02:44:07;9.15;;;4.95;;
59054;SDS011;44845;51.444;7.460;2024-02-15T02:46:33;9.30;;;5.35;;
59054;SDS011;44845;51.444;7.460;2024-02-15T02:48:58;9.02;;;5.82;;
59054;SDS011;44845;51.444;7.460;2024-02-15T02:51:23;10.52;;;6.20;;
59054;SDS011;44845;51.444;7.460;2024-02-15T02:53:49;10.85;;;5.82;;
59054;SDS011;44845;51.444;7.460;2024-02-15T02:56:14;10.57;;;5.95;;
59054;SDS011;44845;51.444;7.460;2024-02-15T02:58:39;10.13;;;6.25;;
59054;SDS011;44845;51.444;7.460;2024-02-15T03:01:08;9.88;;;6.25;;
59054;SDS011;44845;51.444;7.460;2024-02-15T03:03:34;8.35;;;5.75;;
59054;SDS011;44845;51.444;7.460;2024-02-15T03:05:59;10.75;;;5.43;;
59054;SDS011;44845;51.444;7.460;2024-02-15T03:08:26;8.60;;;5.70;;
59054;SDS011;44845;51.444;7.460;2024-02-15T03:10:52;9.25;;;5.72;;
59054;SDS011;44845;51.444;7.460;2024-02-15T03:13:17;9.57;;;6.05;;
59054;SDS011;44845;51.444;7.460;2024-02-15T03:15:44;9.32;;;5.60;;
59054;SDS011;44845;51.444;7.460;2024-02-15T03:18:12;12.63;;;6.38;;
59054;SDS011;44845;51.444;7.460;2024-02-15T03:20:40;10.68;;;6.75;;
59054;SDS011;44845;51.444;7.460;2024-02-15T03:23:06;10.75;;;6.82;;
59054;SDS011;44845;51.444;7.460;2024-02-15T03:25:32;10.63;;;6.50;;
59054;SDS011;44845;51.444;7.460;2024-02-15T03:27:59;10.65;;;6.60;;
59054;SDS011;44845;51.444;7.460;2024-02-15T03:30:30;10.18;;;6.15;;
59054;SDS011;44845;51.444;7.460;2024-02-15T03:32:57;7.78;;;6.25;;
59054;SDS011;44845;51.444;7.460;2024-02-15T03:35:24;11.05;;;6.35;;
59054;SDS011;44845;51.444;7.460;2024-02-15T03:37:51;11.27;;;6.80;;
59054;SDS011;44845;51.444;7.460;2024-02-15T03:40:18;9.02;;;6.40;;
59054;SDS011;44845;51.444;7.460;2024-02-15T03:42:44;12.18;;;7.05;;
59054;SDS011;44845;51.444;7.460;2024-02-15T03:45:10;11.52;;;7.38;;
59054;SDS011;44845;51.444;7.460;2024-02-15T03:47:38;8.35;;;6.20;;
59054;SDS011;44845;51.444;7.460;2024-02-15T03:50:04;10.77;;;6.82;;
59054;SDS011;44845;51.444;7.460;2024-02-15T03:52:30;9.35;;;6.43;;
59054;SDS011;44845;51.444;7.460;2024-02-15T03:54:56;13.40;;;7.13;;
59054;SDS011;44845;51.444;7.460;2024-02-15T03:57:25;11.85;;;7.32;;
59054;SDS011;44845;51.444;7.460;2024-02-15T03:59:51;17.10;;;6.85;;
59054;SDS011;44845;51.444;7.460;2024-02-15T04:02:21;8.00;;;6.47;;
59054;SDS011;44845;51.444;7.460;2024-02-15T04:04:48;12.27;;;6.47;;
59054;SDS011;44845;51.444;7.460;2024-02-15T04:07:14;10.10;;;6.32;;
59054;SDS011;44845;51.444;7.460;2024-02-15T04:09:41;8.48;;;6.30;;
59054;SDS011;44845;51.444;7.460;2024-02-15T04:12:12;12.23;;;7.47;;
59054;SDS011;44845;51.444;7.460;2024-02-15T04:14:38;9.55;;;5.30;;
59054;SDS011;44845;51.444;7.460;2024-02-15T04:17:05;8.77;;;6.32;;
59054;SDS011;44845;51.444;7.460;2024-02-15T04:19:31;7.65;;;5.88;;
59054;SDS011;44845;51.444;7.460;2024-02-15T04:21:57;11.00;;;5.85;;
59054;SDS011;44845;51.444;7.460;2024-02-15T04:24:22;7.18;;;5.55;;
59054;SDS011;44845;51.444;7.460;2024-02-15T04:26:48;7.53;;;5.13;;
59054;SDS011;44845;51.444;7.460;2024-02-15T04:29:17;11.32;;;5.47;;
59054;SDS011;44845;51.444;7.460;2024-02-15T04:31:45;10.38;;;4.68;;
59054;SDS011;44845;51.444;7.460;2024-02-15T04:34:17;7.40;;;4.63;;
59054;SDS011;44845;51.444;7.460;2024-02-15T04:36:45;7.07;;;4.13;;
59054;SDS011;44845;51.444;7.460;2024-02-15T04:39:14;6.85;;;4.03;;
59054;SDS011;44845;51.444;7.460;2024-02-15T04:41:48;6.22;;;3.60;;
59054;SDS011;44845;51.444;7.460;2024-02-15T04:44:14;5.90;;;3.80;;
59054;SDS011;44845;51.444;7.460;2024-02-15T04:46:41;9.82;;;3.20;;
59054;SDS011;44845;51.444;7.460;2024-02-15T04:49:08;3.95;;;2.75;;
59054;SDS011;44845;51.444;7.460;2024-02-15T04:51:33;3.90;;;2.60;;
59054;SDS011;44845;51.444;7.460;2024-02-15T04:53:58;3.75;;;2.80;;
59054;SDS011;44845;51.444;7.460;2024-02-15T04:56:26;7.35;;;2.92;;
59054;SDS011;44845;51.444;7.460;2024-02-15T04:58:52;4.70;;;2.80;;
59054;SDS011;44845;51.444;7.460;2024-02-15T05:01:17;4.75;;;2.35;;
59054;SDS011;44845;51.444;7.460;2024-02-15T05:03:45;6.30;;;2.42;;
59054;SDS011;44845;51.444;7.460;2024-02-15T05:06:11;8.52;;;2.40;;
59054;SDS011;44845;51.444;7.460;2024-02-15T05:08:39;5.20;;;1.92;;
59054;SDS011;44845;51.444;7.460;2024-02-15T05:11:11;4.22;;;1.90;;
59054;SDS011;44845;51.444;7.460;2024-02-15T05:13:47;4.38;;;2.30;;
59054;SDS011;44845;51.444;7.460;2024-02-15T05:16:15;6.88;;;1.73;;
59054;SDS011;44845;51.444;7.460;2024-02-15T05:18:41;3.10;;;1.90;;
59054;SDS011;44845;51.444;7.460;2024-02-15T05:21:06;6.80;;;1.80;;
59054;SDS011;44845;51.444;7.460;2024-02-15T05:23:37;6.95;;;2.03;;
59054;SDS011;44845;51.444;7.460;2024-02-15T05:26:05;3.10;;;1.65;;
59054;SDS011;44845;51.444;7.460;2024-02-15T05:28:30;7.20;;;2.08;;
59054;SDS011;44845;51.444;7.460;2024-02-15T05:31:08;2.90;;;1.52;;
59054;SDS011;44845;51.444;7.460;2024-02-15T05:33:45;9.73;;;1.67;;
59054;SDS011;44845;51.444;7.460;2024-02-15T05:36:15;5.63;;;1.90;;
59054;SDS011;44845;51.444;7.460;2024-02-15T05:38:44;5.05;;;1.60;;
59054;SDS011;44845;51.444;7.460;2024-02-15T05:41:10;2.88;;;1.30;;
59054;SDS011;44845;51.444;7.460;2024-02-15T05:43:36;4.88;;;1.10;;
59054;SDS011;44845;51.444;7.460;2024-02-15T05:46:05;8.25;;;1.60;;
59054;SDS011;44845;51.444;7.460;2024-02-15T05:48:31;5.07;;;1.60;;
59054;SDS011;44845;51.444;7.460;2024-02-15T05:50:59;3.72;;;1.42;;
59054;SDS011;44845;51.444;7.460;2024-02-15T05:53:25;1.85;;;1.52;;
59054;SDS011;44845;51.444;7.460;2024-02-15T05:55:51;7.25;;;1.95;;
59054;SDS011;44845;51.444;7.460;2024-02-15T05:58:17;3.65;;;1.75;;
59054;SDS011;44845;51.444;7.460;2024-02-15T06:00:42;4.43;;;1.80;;
59054;SDS011;44845;51.444;7.460;2024-02-15T06:03:18;2.55;;;1.50;;
59054;SDS011;44845;51.444;7.460;2024-02-15T06:05:43;3.85;;;1.50;;
59054;SDS011;44845;51.444;7.460;2024-02-15T06:08:09;2.88;;;1.50;;
59054;SDS011;44845;51.444;7.460;2024-02-15T06:10:37;6.97;;;1.40;;
59054;SDS011;44845;51.444;7.460;2024-02-15T06:13:03;2.28;;;1.10;;
59054;SDS011;44845;51.444;7.460;2024-02-15T06:15:28;2.95;;;1.08;;
59054;SDS011;44845;51.444;7.460;2024-02-15T06:17:54;6.50;;;1.30;;
59054;SDS011;44845;51.444;7.460;2024-02-15T06:20:19;4.22;;;1.05;;
59054;SDS011;44845;51.444;7.460;2024-02-15T06:22:48;1.80;;;0.90;;
59054;SDS011;44845;51.444;7.460;2024-02-15T06:25:14;3.83;;;0.93;;
59054;SDS011;44845;51.444;7.460;2024-02-15T06:27:40;3.00;;;1.20;;
59054;SDS011;44845;51.444;7.460;2024-02-15T06:30:07;7.47;;;1.48;;
59054;SDS011;44845;51.444;7.460;2024-02-15T06:32:52;4.43;;;1.00;;
59054;SDS011;44845;51.444;7.460;2024-02-15T06:35:38;8.85;;;1.13;;
59054;SDS011;44845;51.444;7.460;2024-02-15T06:38:23;4.05;;;1.13;;
59054;SDS011;44845;51.444;7.460;2024-02-15T06:41:07;4.93;;;1.00;;
59054;SDS011;44845;51.444;7.460;2024-02-15T06:43:33;2.30;;;0.88;;
59054;SDS011;44845;51.444;7.460;2024-02-15T06:45:59;5.70;;;1.15;;
59054;SDS011;44845;51.444;7.460;2024-02-15T06:48:25;3.28;;;1.52;;
59054;SDS011;44845;51.444;7.460;2024-02-15T06:50:51;4.05;;;1.13;;
59054;SDS011;44845;51.444;7.460;2024-02-15T06:53:16;5.60;;;1.30;;
59054;SDS011;44845;51.444;7.460;2024-02-15T06:55:45;3.25;;;1.20;;
59054;SDS011;44845;51.444;7.460;2024-02-15T06:58:13;5.18;;;1.20;;
59054;SDS011;44845;51.444;7.460;2024-02-15T07:00:40;2.05;;;1.13;;
59054;SDS011;44845;51.444;7.460;2024-02-15T07:03:07;2.42;;;1.08;;
59054;SDS011;44845;51.444;7.460;2024-02-15T07:05:33;4.85;;;1.25;;
59054;SDS011;44845;51.444;7.460;2024-02-15T07:07:58;4.63;;;1.30;;
59054;SDS011;44845;51.444;7.460;2024-02-15T07:10:24;6.00;;;1.20;;
59054;SDS011;44845;51.444;7.460;2024-02-15T07:12:49;5.97;;;1.70;;
59054;SDS011;44845;51.444;7.460;2024-02-15T07:15:15;8.27;;;1.52;;
59054;SDS011;44845;51.444;7.460;2024-02-15T07:17:41;4.70;;;1.75;;
59054;SDS011;44845;51.444;7.460;2024-02-15T07:20:07;4.78;;;1.20;;
59054;SDS011;44845;51.444;7.460;2024-02-15T07:22:35;4.50;;;1.30;;
59054;SDS011;44845;51.444;7.460;2024-02-15T07:25:02;4.88;;;1.70;;
59054;SDS011;44845;51.444;7.460;2024-02-15T07:27:28;3.25;;;1.13;;
59054;SDS011;44845;51.444;7.460;2024-02-15T07:29:53;4.32;;;1.45;;
59054;SDS011;44845;51.444;7.460;2024-02-15T07:32:19;7.85;;;1.67;;
59054;SDS011;44845;51.444;7.460;2024-02-15T07:34:45;4.85;;;1.45;;
59054;SDS011;44845;51.444;7.460;2024-02-15T07:37:12;5.97;;;1.83;;
59054;SDS011;44845;51.444;7.460;2024-02-15T07:39:40;6.03;;;1.45;;
59054;SDS011;44845;51.444;7.460;2024-02-15T07:42:05;7.43;;;1.77;;
59054;SDS011;44845;51.444;7.460;2024-02-15T07:44:31;8.90;;;1.55;;
59054;SDS011;44845;51.444;7.460;2024-02-15T07:47:00;3.22;;;1.30;;
59054;SDS011;44845;51.444;7.460;2024-02-15T07:49:26;6.80;;;1.42;;
59054;SDS011;44845;51.444;7.460;2024-02-15T07:51:51;4.75;;;1.60;;
59054;SDS011;44845;51.444;7.460;2024-02-15T07:54:18;5.03;;;1.70;;
59054;SDS011;44845;51.444;7.460;2024-02-15T07:56:47;4.95;;;1.58;;
59054;SDS011;44845;51.444;7.460;2024-02-15T07:59:13;8.63;;;1.95;;
59054;SDS011;44845;51.444;7.460;2024-02-15T08:01:41;4.35;;;1.25;;
59054;SDS011;44845;51.444;7.460;2024-02-15T08:04:07;6.47;;;1.70;;
59054;SDS011;44845;51.444;7.460;2024-02-15T08:06:33;5.63;;;1.50;;
59054;SDS011;44845;51.444;7.460;2024-02-15T08:08:58;7.50;;;1.40;;
59054;SDS011;44845;51.444;7.460;2024-02-15T08:11:24;5.10;;;1.60;;
59054;SDS011;44845;51.444;7.460;2024-02-15T08:13:51;10.10;;;2.00;;
59054;SDS011;44845;51.444;7.460;2024-02-15T08:16:19;7.10;;;2.05;;
59054;SDS011;44845;51.444;7.460;2024-02-15T08:18:47;12.07;;;1.90;;
59054;SDS011;44845;51.444;7.460;2024-02-15T08:21:13;9.48;;;1.50;;
59054;SDS011;44845;51.444;7.460;2024-02-15T08:23:39;9.85;;;2.03;;
59054;SDS011;44845;51.444;7.460;2024-02-15T08:26:05;7.15;;;1.40;;
59054;SDS011;44845;51.444;7.460;2024-02-15T08:28:30;4.40;;;1.55;;
59054;SDS011;44845;51.444;7.460;2024-02-15T08:30:55;11.85;;;1.63;;
59054;SDS011;44845;51.444;7.460;2024-02-15T08:33:24;6.70;;;1.58;;
59054;SDS011;44845;51.444;7.460;2024-02-15T08:35:50;2.30;;;1.33;;
59054;SDS011;44845;51.444;7.460;2024-02-15T08:38:16;3.65;;;1.38;;
59054;SDS011;44845;51.444;7.460;2024-02-15T08:40:42;2.95;;;1.27;;
59054;SDS011;44845;51.444;7.460;2024-02-15T08:43:09;4.45;;;1.30;;
59054;SDS011;44845;51.444;7.460;2024-02-15T08:45:34;3.40;;;1.17;;
59054;SDS011;44845;51.444;7.460;2024-02-15T08:48:00;3.88;;;1.38;;
59054;SDS011;44845;51.444;7.460;2024-02-15T08:50:29;7.55;;;1.77;;
59054;SDS011;44845;51.444;7.460;2024-02-15T08:52:54;5.97;;;1.60;;
59054;SDS011;44845;51.444;7.460;2024-02-15T08:55:20;3.72;;;1.10;;
59054;SDS011;44845;51.444;7.460;2024-02-15T08:57:49;2.08;;;0.88;;
59054;SDS011;44845;51.444;7.460;2024-02-15T09:00:14;3.30;;;1.10;;
59054;SDS011;44845;51.444;7.460;2024-02-15T09:02:44;2.97;;;1.00;;
59054;SDS011;44845;51.444;7.460;2024-02-15T09:05:10;2.95;;;1.02;;
59054;SDS011;44845;51.444;7.460;2024-02-15T09:07:39;3.92;;;1.05;;
59054;SDS011;44845;51.444;7.460;2024-02-15T09:10:06;3.80;;;1.02;;
59054;SDS011;44845;51.444;7.460;2024-02-15T09:12:34;3.80;;;1.48;;
59054;SDS011;44845;51.444;7.460;2024-02-15T09:15:01;5.20;;;1.13;;
59054;SDS011;44845;51.444;7.460;2024-02-15T09:17:27;3.83;;;1.25;;
59054;SDS011;44845;51.444;7.460;2024-02-15T09:19:52;5.97;;;1.00;;
59054;SDS011;44845;51.444;7.460;2024-02-15T09:22:19;2.53;;;1.10;;
59054;SDS011;44845;51.444;7.460;2024-02-15T09:24:45;3.63;;;1.00;;
59054;SDS011;44845;51.444;7.460;2024-02-15T09:27:10;7.55;;;1.17;;
59054;SDS011;44845;51.444;7.460;2024-02-15T09:29:37;2.60;;;1.02;;
59054;SDS011;44845;51.444;7.460;2024-02-15T09:32:03;5.75;;;1.27;;
59054;SDS011;44845;51.444;7.460;2024-02-15T09:34:29;6.85;;;1.10;;
59054;SDS011;44845;51.444;7.460;2024-02-15T09:36:55;5.05;;;1.27;;
59054;SDS011;44845;51.444;7.460;2024-02-15T09:39:21;3.55;;;1.20;;
59054;SDS011;44845;51.444;7.460;2024-02-15T09:41:48;2.90;;;0.98;;
59054;SDS011;44845;51.444;7.460;2024-02-15T09:44:20;3.30;;;0.90;;
59054;SDS011;44845;51.444;7.460;2024-02-15T09:46:46;6.05;;;1.40;;
59054;SDS011;44845;51.444;7.460;2024-02-15T09:49:16;4.78;;;1.23;;
59054;SDS011;44845;51.444;7.460;2024-02-15T09:51:42;2.97;;;1.02;;
59054;SDS011;44845;51.444;7.460;2024-02-15T09:54:10;2.00;;;0.82;;
59054;SDS011;44845;51.444;7.460;2024-02-15T09:56:36;4.82;;;1.10;;
59054;SDS011;44845;51.444;7.460;2024-02-15T09:59:02;5.03;;;1.10;;
59054;SDS011;44845;51.444;7.460;2024-02-15T10:01:28;5.03;;;0.98;;
59054;SDS011;44845;51.444;7.460;2024-02-15T10:03:56;3.63;;;0.82;;
59054;SDS011;44845;51.444;7.460;2024-02-15T10:06:24;5.30;;;1.00;;
59054;SDS011;44845;51.444;7.460;2024-02-15T10:08:50;3.75;;;0.95;;
59054;SDS011;44845;51.444;7.460;2024-02-15T10:11:16;3.25;;;0.90;;
59054;SDS011;44845;51.444;7.460;2024-02-15T10:13:41;2.92;;;1.00;;
59054;SDS011;44845;51.444;7.460;2024-02-15T10:16:16;3.50;;;1.08;;
59054;SDS011;44845;51.444;7.460;2024-02-15T10:18:43;2.97;;;0.90;;
59054;SDS011;44845;51.444;7.460;2024-02-15T10:21:09;6.25;;;1.02;;
59054;SDS011;44845;51.444;7.460;2024-02-15T10:23:36;2.75;;;0.90;;
59054;SDS011;44845;51.444;7.460;2024-02-15T10:26:05;4.22;;;1.35;;
59054;SDS011;44845;51.444;7.460;2024-02-15T10:28:44;4.95;;;0.90;;
59054;SDS011;44845;51.444;7.460;2024-02-15T10:31:09;3.58;;;1.10;;
59054;SDS011;44845;51.444;7.460;2024-02-15T10:33:38;3.90;;;0.90;;
59054;SDS011;44845;51.444;7.460;2024-02-15T10:36:04;4.25;;;1.10;;
59054;SDS011;44845;51.444;7.460;2024-02-15T10:38:33;4.07;;;1.13;;
59054;SDS011;44845;51.444;7.460;2024-02-15T10:41:02;4.40;;;1.08;;
59054;SDS011;44845;51.444;7.460;2024-02-15T10:43:32;1.95;;;0.80;;
59054;SDS011;44845;51.444;7.460;2024-02-15T10:45:58;3.08;;;0.80;;
59054;SDS011;44845;51.444;7.460;2024-02-15T10:48:25;2.72;;;0.80;;
59054;SDS011;44845;51.444;7.460;2024-02-15T10:50:52;2.42;;;1.10;;
59054;SDS011;44845;51.444;7.460;2024-02-15T10:53:21;5.15;;;0.80;;
59054;SDS011;44845;51.444;7.460;2024-02-15T11:00:56;4.32;;;1.05;;
59054;SDS011;44845;51.444;7.460;2024-02-15T11:03:25;2.10;;;0.88;;
59054;SDS011;44845;51.444;7.460;2024-02-15T11:06:18;2.63;;;0.93;;
59054;SDS011;44845;51.444;7.460;2024-02-15T11:08:46;2.78;;;1.00;;
59054;SDS011;44845;51.444;7.460;2024-02-15T11:11:13;3.25;;;1.08;;
59054;SDS011;44845;51.444;7.460;2024-02-15T11:13:39;2.40;;;0.90;;
59054;SDS011;44845;51.444;7.460;2024-02-15T11:16:05;3.35;;;0.88;;
59054;SDS011;44845;51.444;7.460;2024-02-15T11:18:46;3.42;;;1.10;;
59054;SDS011;44845;51.444;7.460;2024-02-15T11:21:14;1.92;;;0.73;;
59054;SDS011;44845;51.444;7.460;2024-02-15T11:23:40;3.88;;;0.80;;
59054;SDS011;44845;51.444;7.460;2024-02-15T11:26:13;3.33;;;1.02;;
59054;SDS011;44845;51.444;7.460;2024-02-15T11:29:07;2.22;;;0.90;;
59054;SDS011;44845;51.444;7.460;2024-02-15T11:37:08;3.63;;;1.00;;
59054;SDS011;44845;51.444;7.460;2024-02-15T11:39:40;3.50;;;0.82;;
59054;SDS011;44845;51.444;7.460;2024-02-15T11:42:26;5.30;;;1.00;;
59054;SDS011;44845;51.444;7.460;2024-02-15T11:45:06;4.18;;;0.95;;
59054;SDS011;44845;51.444;7.460;2024-02-15T11:47:32;3.95;;;1.00;;
59054;SDS011;44845;51.444;7.460;2024-02-15T11:50:02;3.88;;;0.88;;
59054;SDS011;44845;51.444;7.460;2024-02-15T11:52:28;3.10;;;0.82;;
59054;SDS011;44845;51.444;7.460;2024-02-15T11:54:53;4.40;;;1.13;;
59054;SDS011;44845;51.444;7.460;2024-02-15T11:57:19;5.03;;;0.93;;
59054;SDS011;44845;51.444;7.460;2024-02-15T12:00:01;1.95;;;0.60;;
59054;SDS011;44845;51.444;7.460;2024-02-15T12:02:45;3.08;;;0.90;;
59054;SDS011;44845;51.444;7.460;2024-02-15T12:05:29;3.53;;;0.80;;
59054;SDS011;44845;51.444;7.460;2024-02-15T12:08:13;2.72;;;0.90;;
59054;SDS011;44845;51.444;7.460;2024-02-15T12:11:00;5.07;;;1.15;;
59054;SDS011;44845;51.444;7.460;2024-02-15T12:13:49;5.82;;;0.98;;
59054;SDS011;44845;51.444;7.460;2024-02-15T12:16:33;3.85;;;0.63;;
59054;SDS011;44845;51.444;7.460;2024-02-15T12:19:18;5.90;;;1.05;;
59054;SDS011;44845;51.444;7.460;2024-02-15T12:21:44;3.28;;;0.85;;
59054;SDS011;44845;51.444;7.460;2024-02-15T12:24:09;1.67;;;0.75;;
59054;SDS011;44845;51.444;7.460;2024-02-15T12:26:34;5.05;;;0.70;;
59054;SDS011;44845;51.444;7.460;2024-02-15T12:29:00;5.25;;;1.05;;
59054;SDS011;44845;51.444;7.460;2024-02-15T12:31:26;2.08;;;0.90;;
59054;SDS011;44845;51.444;7.460;2024-02-15T12:34:02;1.30;;;0.80;;
59054;SDS011;44845;51.444;7.460;2024-02-15T12:36:32;2.90;;;0.70;;
59054;SDS011;44845;51.444;7.460;2024-02-15T12:39:05;1.83;;;0.60;;
59054;SDS011;44845;51.444;7.460;2024-02-15T12:41:41;3.63;;;0.80;;
59054;SDS011;44845;51.444;7.460;2024-02-15T12:44:15;3.83;;;0.85;;
59054;SDS011;44845;51.444;7.460;2024-02-15T12:46:41;2.05;;;0.60;;
59054;SDS011;44845;51.444;7.460;2024-02-15T12:49:28;4.68;;;0.98;;
59054;SDS011;44845;51.444;7.460;2024-02-15T12:51:53;3.22;;;0.85;;
59054;SDS011;44845;51.444;7.460;2024-02-15T12:54:39;1.88;;;0.60;;
59054;SDS011;44845;51.444;7.460;2024-02-15T12:57:08;4.35;;;0.77;;
59054;SDS011;44845;51.444;7.460;2024-02-15T12:59:35;1.55;;;0.60;;
59054;SDS011;44845;51.444;7.460;2024-02-15T13:02:02;1.90;;;0.70;;
59054;SDS011;44845;51.444;7.460;2024-02-15T13:04:28;5.15;;;1.00;;
59054;SDS011;44845;51.444;7.460;2024-02-15T13:06:53;2.42;;;0.70;;
59054;SDS011;44845;51.444;7.460;2024-02-15T13:09:19;3.42;;;0.90;;
59054;SDS011;44845;51.444;7.460;2024-02-15T13:11:47;4.13;;;0.90;;
59054;SDS011;44845;51.444;7.460;2024-02-15T13:14:12;5.03;;;1.20;;
59054;SDS011;44845;51.444;7.460;2024-02-15T13:16:38;4.32;;;0.93;;
59054;SDS011;44845;51.444;7.460;2024-02-15T13:19:03;4.50;;;0.73;;
59054;SDS011;44845;51.444;7.460;2024-02-15T13:21:31;2.55;;;0.88;;
59054;SDS011;44845;51.444;7.460;2024-02-15T13:23:59;4.68;;;0.93;;
59054;SDS011;44845;51.444;7.460;2024-02-15T13:26:25;3.88;;;0.65;;
59054;SDS011;44845;51.444;7.460;2024-02-15T13:28:51;2.97;;;0.80;;
59054;SDS011;44845;51.444;7.460;2024-02-15T13:31:17;3.53;;;0.95;;
59054;SDS011;44845;51.444;7.460;2024-02-15T13:33:42;5.07;;;1.00;;
59054;SDS011;44845;51.444;7.460;2024-02-15T13:36:08;4.15;;;0.90;;
59054;SDS011;44845;51.444;7.460;2024-02-15T13:38:36;2.28;;;0.63;;
59054;SDS011;44845;51.444;7.460;2024-02-15T13:41:02;3.00;;;0.90;;
59054;SDS011;44845;51.444;7.460;2024-02-15T13:43:28;3.75;;;1.10;;
59054;SDS011;44845;51.444;7.460;2024-02-15T13:45:53;2.58;;;1.00;;
59054;SDS011;44845;51.444;7.460;2024-02-15T13:48:19;2.28;;;0.70;;
59054;SDS011;44845;51.444;7.460;2024-02-15T13:50:44;4.53;;;1.10;;
59054;SDS011;44845;51.444;7.460;2024-02-15T13:53:10;3.05;;;0.80;;
59054;SDS011;44845;51.444;7.460;2024-02-15T13:55:35;3.47;;;0.88;;
59054;SDS011;44845;51.444;7.460;2024-02-15T13:58:02;3.15;;;0.80;;
59054;SDS011;44845;51.444;7.460;2024-02-15T14:00:28;5.85;;;1.00;;
59054;SDS011;44845;51.444;7.460;2024-02-15T14:02:59;3.75;;;0.77;;
59054;SDS011;44845;51.444;7.460;2024-02-15T14:05:27;2.58;;;0.88;;
59054;SDS011;44845;51.444;7.460;2024-02-15T14:08:00;2.67;;;0.80;;
59054;SDS011;44845;51.444;7.460;2024-02-15T14:10:29;3.40;;;0.88;;
59054;SDS011;44845;51.444;7.460;2024-02-15T14:12:56;3.88;;;0.93;;
59054;SDS011;44845;51.444;7.460;2024-02-15T14:15:26;6.32;;;0.80;;
59054;SDS011;44845;51.444;7.460;2024-02-15T14:17:52;2.50;;;0.90;;
59054;SDS011;44845;51.444;7.460;2024-02-15T14:20:17;2.97;;;0.88;;
59054;SDS011;44845;51.444;7.460;2024-02-15T14:22:44;5.80;;;1.10;;
59054;SDS011;44845;51.444;7.460;2024-02-15T14:25:14;2.60;;;0.73;;
59054;SDS011;44845;51.444;7.460;2024-02-15T14:27:39;3.42;;;0.73;;
59054;SDS011;44845;51.444;7.460;2024-02-15T14:30:06;1.50;;;0.80;;
59054;SDS011;44845;51.444;7.460;2024-02-15T14:32:50;2.85;;;0.80;;
59054;SDS011;44845;51.444;7.460;2024-02-15T14:35:25;3.42;;;0.82;;
59054;SDS011;44845;51.444;7.460;2024-02-15T14:37:50;3.33;;;0.90;;
59054;SDS011;44845;51.444;7.460;2024-02-15T14:40:15;2.95;;;0.80;;
59054;SDS011;44845;51.444;7.460;2024-02-15T14:42:41;2.78;;;0.75;;
59054;SDS011;44845;51.444;7.460;2024-02-15T14:45:11;2.88;;;1.35;;
59054;SDS011;44845;51.444;7.460;2024-02-15T14:47:36;2.40;;;0.90;;
59054;SDS011;44845;51.444;7.460;2024-02-15T14:50:02;2.63;;;0.70;;
59054;SDS011;44845;51.444;7.460;2024-02-15T14:52:28;2.83;;;0.90;;
59054;SDS011;44845;51.444;7.460;2024-02-15T14:54:54;2.22;;;0.63;;
59054;SDS011;44845;51.444;7.460;2024-02-15T14:57:19;2.72;;;0.82;;
59054;SDS011;44845;51.444;7.460;2024-02-15T14:59:45;3.90;;;1.20;;